createdAt,value
2018-03-21T00:00:42.140Z,59.46
2018-03-21T00:03:16.529Z,58.56
2018-03-21T00:05:52.633Z,58.57
2018-03-21T00:08:27.630Z,58.82
2018-03-21T00:10:59.204Z,59.17
2018-03-21T00:13:31.249Z,59.45
2018-03-21T00:16:05.715Z,58.97
2018-03-21T00:18:36.163Z,58.24
2018-03-21T00:21:06.930Z,59.02
2018-03-21T00:23:36.671Z,59.59
2018-03-21T00:26:09.490Z,59.50
2018-03-21T00:28:39.856Z,58.71
2018-03-21T00:31:10.355Z,58.91
2018-03-21T00:33:44.834Z,59.13
2018-03-21T00:36:22.662Z,58.77
2018-03-21T00:38:57.475Z,58.94
2018-03-21T00:41:30.946Z,59.72
2018-03-21T00:44:04.513Z,59.62
2018-03-21T00:46:35.461Z,59.46
2018-03-21T00:49:14.672Z,59.26
2018-03-21T00:51:49.367Z,58.64
2018-03-21T00:54:21.091Z,58.81
2018-03-21T00:56:58.134Z,59.00
2018-03-21T00:59:29.794Z,59.05
2018-03-21T01:02:06.916Z,58.94
2018-03-21T01:04:37.982Z,59.25
2018-03-21T01:07:11.863Z,59.54
2018-03-21T01:09:41.775Z,59.36
2018-03-21T01:12:16.655Z,60.40
2018-03-21T01:14:46.919Z,60.19
2018-03-21T01:17:20.782Z,59.57
2018-03-21T01:19:52.370Z,59.73
2018-03-21T01:22:24.418Z,58.80
2018-03-21T01:24:55.705Z,59.22
2018-03-21T01:27:28.273Z,59.22
2018-03-21T01:30:01.028Z,59.54
2018-03-21T01:32:33.227Z,58.39
2018-03-21T01:35:03.683Z,58.78
2018-03-21T01:37:36.368Z,59.84
2018-03-21T01:40:10.932Z,62.27
2018-03-21T01:42:43.334Z,63.24
2018-03-21T01:45:14.479Z,62.70
2018-03-21T01:47:47.161Z,61.34
2018-03-21T01:50:20.001Z,62.99
2018-03-21T01:53:13.297Z,62.51
2018-03-21T01:55:43.652Z,62.48
2018-03-21T01:58:16.974Z,63.09
2018-03-21T02:00:46.822Z,62.97
2018-03-21T02:03:20.888Z,62.05
2018-03-21T02:05:52.347Z,61.49
2018-03-21T02:08:25.078Z,61.26
2018-03-21T02:10:57.213Z,59.87
2018-03-21T02:13:33.710Z,59.55
2018-03-21T02:16:09.638Z,59.58
2018-03-21T02:18:43.428Z,58.94
2018-03-21T02:21:19.257Z,58.81
2018-03-21T02:23:52.511Z,59.80
2018-03-21T02:26:25.530Z,59.40
2018-03-21T02:28:59.458Z,59.11
2018-03-21T02:31:32.581Z,58.66
2018-03-21T02:34:10.602Z,59.08
2018-03-21T02:36:43.377Z,59.66
2018-03-21T02:39:15.311Z,61.11
2018-03-21T02:41:49.470Z,60.44
2018-03-21T02:44:20.611Z,59.56
2018-03-21T02:46:52.802Z,59.91
2018-03-21T02:49:26.837Z,61.58
2018-03-21T02:51:59.004Z,62.13
2018-03-21T02:54:30.305Z,61.22
2018-03-21T02:57:02.703Z,60.33
2018-03-21T02:59:32.893Z,61.32
2018-03-21T03:02:07.755Z,61.67
2018-03-21T03:04:38.823Z,61.58
2018-03-21T03:07:14.033Z,61.24
2018-03-21T03:09:48.243Z,60.73
2018-03-21T03:12:18.780Z,59.05
2018-03-21T03:14:53.866Z,59.34
2018-03-21T03:17:27.335Z,59.91
2018-03-21T03:20:00.350Z,60.75
2018-03-21T03:22:29.972Z,62.23
2018-03-21T03:25:00.533Z,62.77
2018-03-21T03:27:31.562Z,61.81
2018-03-21T03:30:09.840Z,60.75
2018-03-21T03:32:42.917Z,60.30
2018-03-21T03:35:15.169Z,59.41
2018-03-21T03:37:47.640Z,59.75
2018-03-21T03:40:17.794Z,59.45
2018-03-21T03:42:51.295Z,59.25
2018-03-21T03:45:21.901Z,59.34
2018-03-21T03:47:56.028Z,59.58
2018-03-21T03:50:26.537Z,59.35
2018-03-21T03:53:00.867Z,59.04
2018-03-21T03:55:36.409Z,59.02
2018-03-21T03:58:08.094Z,59.19
2018-03-21T04:00:37.996Z,59.22
2018-03-21T04:03:11.515Z,59.97
2018-03-21T04:05:48.089Z,59.72
2018-03-21T04:08:19.410Z,59.48
2018-03-21T04:10:54.530Z,61.62
2018-03-21T04:13:26.196Z,62.08
2018-03-21T04:15:57.447Z,62.25
2018-03-21T04:18:28.790Z,62.97
2018-03-21T04:21:14.566Z,62.58
2018-03-21T04:23:45.787Z,61.78
2018-03-21T04:26:20.776Z,61.31
2018-03-21T04:28:52.081Z,60.28
2018-03-21T04:31:27.485Z,60.21
2018-03-21T04:33:58.528Z,60.19
2018-03-21T04:36:31.017Z,60.34
2018-03-21T04:39:01.633Z,59.97
2018-03-21T04:41:32.567Z,60.40
2018-03-21T04:44:03.900Z,60.66
2018-03-21T04:46:38.576Z,60.46
2018-03-21T04:49:10.171Z,60.32
2018-03-21T04:51:43.595Z,59.73
2018-03-21T04:54:18.133Z,60.64
2018-03-21T04:56:51.897Z,61.13
2018-03-21T04:59:26.741Z,60.56
2018-03-21T05:02:00.820Z,62.59
2018-03-21T05:04:34.975Z,63.71
2018-03-21T05:07:05.816Z,63.21
2018-03-21T05:09:38.124Z,63.26
2018-03-21T05:12:10.799Z,63.69
2018-03-21T05:14:46.522Z,62.83
2018-03-21T05:17:24.884Z,63.25
2018-03-21T05:19:55.854Z,63.68
2018-03-21T05:22:27.751Z,61.70
2018-03-21T05:24:59.962Z,61.87
2018-03-21T05:27:33.961Z,62.39
2018-03-21T05:30:03.840Z,61.86
2018-03-21T05:32:35.305Z,60.69
2018-03-21T05:35:06.461Z,61.84
2018-03-21T05:37:38.994Z,61.08
2018-03-21T05:40:14.915Z,61.13
2018-03-21T05:42:51.730Z,60.57
2018-03-21T05:45:24.015Z,60.04
2018-03-21T05:47:56.437Z,60.03
2018-03-21T05:50:32.666Z,59.66
2018-03-21T05:53:04.629Z,59.58
2018-03-21T05:55:39.758Z,59.37
2018-03-21T05:58:19.079Z,58.45
2018-03-21T06:00:51.352Z,58.50
2018-03-21T06:03:23.853Z,59.37
2018-03-21T06:05:58.055Z,59.43
2018-03-21T06:08:30.302Z,59.03
2018-03-21T06:11:01.535Z,58.18
2018-03-21T06:13:33.563Z,58.83
2018-03-21T06:16:06.872Z,57.80
2018-03-21T06:18:41.375Z,57.45
2018-03-21T06:21:13.747Z,58.08
2018-03-21T06:23:48.270Z,58.90
2018-03-21T06:26:26.193Z,58.04
2018-03-21T06:28:58.344Z,58.03
2018-03-21T06:31:29.250Z,58.04
2018-03-21T06:34:00.073Z,57.20
2018-03-21T06:36:32.722Z,57.31
2018-03-21T06:39:08.329Z,57.00
2018-03-21T06:41:37.993Z,57.38
2018-03-21T06:44:11.609Z,56.71
2018-03-21T06:46:46.710Z,56.35
2018-03-21T06:49:21.627Z,55.40
2018-03-21T06:51:51.980Z,56.18
2018-03-21T06:54:24.402Z,55.91
2018-03-21T06:56:58.971Z,55.36
2018-03-21T06:59:32.560Z,54.46
2018-03-21T07:02:06.469Z,55.51
2018-03-21T07:04:37.350Z,54.29
2018-03-21T07:07:13.037Z,53.61
2018-03-21T07:09:43.976Z,54.53
2018-03-21T07:12:14.912Z,54.69
2018-03-21T07:15:04.738Z,53.94
2018-03-21T07:17:35.825Z,52.30
2018-03-21T07:20:07.530Z,51.20
2018-03-21T07:22:39.135Z,51.36
2018-03-21T07:25:17.360Z,51.42
2018-03-21T07:27:48.145Z,51.44
2018-03-21T07:30:19.361Z,49.95
2018-03-21T07:32:49.636Z,50.35
2018-03-21T07:35:21.885Z,50.70
2018-03-21T07:37:54.365Z,49.67
2018-03-21T07:40:31.441Z,49.73
2018-03-21T07:43:00.973Z,49.74
2018-03-21T07:45:32.405Z,49.89
2018-03-21T07:48:08.392Z,49.57
2018-03-21T07:50:40.840Z,48.71
2018-03-21T07:53:12.579Z,47.33
2018-03-21T07:55:43.449Z,47.69
2018-03-21T07:58:16.726Z,46.51
2018-03-21T08:00:49.171Z,45.32
2018-03-21T08:03:19.213Z,46.79
2018-03-21T08:05:51.850Z,46.89
2018-03-21T08:08:22.233Z,47.19
2018-03-21T08:10:57.447Z,45.58
2018-03-21T08:13:27.676Z,45.57
2018-03-21T08:16:06.323Z,43.37
2018-03-21T08:18:39.266Z,42.99
2018-03-21T08:21:12.344Z,42.08
2018-03-21T08:23:48.791Z,43.50
2018-03-21T08:26:22.622Z,44.75
2018-03-21T08:28:54.265Z,44.30
2018-03-21T08:31:45.069Z,43.02
2018-03-21T08:34:22.883Z,44.18
2018-03-21T08:36:53.124Z,44.05
2018-03-21T08:39:24.723Z,43.60
2018-03-21T08:41:55.875Z,43.93
2018-03-21T08:44:28.110Z,44.11
2018-03-21T08:47:02.267Z,43.13
2018-03-21T08:49:33.257Z,43.04
2018-03-21T08:52:04.117Z,41.72
2018-03-21T08:54:35.477Z,41.49
2018-03-21T08:57:15.825Z,41.82
2018-03-21T08:59:49.610Z,40.50
2018-03-21T09:02:20.051Z,42.32
2018-03-21T09:04:50.447Z,40.75
2018-03-21T09:07:23.252Z,40.16
2018-03-21T09:09:54.307Z,40.00
2018-03-21T09:12:23.842Z,39.93
2018-03-21T09:14:58.145Z,39.94
2018-03-21T09:17:28.036Z,38.17
2018-03-21T09:20:03.561Z,38.18
2018-03-21T09:22:33.987Z,36.32
2018-03-21T09:25:04.427Z,36.62
2018-03-21T09:27:36.206Z,37.11
2018-03-21T09:30:08.491Z,39.06
2018-03-21T09:32:41.695Z,35.88
2018-03-21T09:35:12.748Z,36.73
2018-03-21T09:37:43.670Z,36.78
2018-03-21T09:40:15.621Z,37.84
2018-03-21T09:42:56.389Z,37.51
2018-03-21T09:45:29.135Z,38.13
2018-03-21T09:47:59.159Z,36.21
2018-03-21T09:50:32.403Z,35.67
2018-03-21T09:53:03.047Z,36.73
2018-03-21T09:55:37.005Z,36.76
2018-03-21T09:58:08.952Z,35.85
2018-03-21T10:00:38.973Z,36.44
2018-03-21T10:03:09.959Z,35.01
2018-03-21T10:05:40.504Z,32.28
2018-03-21T10:08:12.121Z,35.40
2018-03-21T10:10:47.185Z,36.07
2018-03-21T10:13:19.175Z,36.21
2018-03-21T10:15:48.954Z,35.67
2018-03-21T10:18:19.882Z,34.53
2018-03-21T10:20:52.654Z,34.53
2018-03-21T10:23:22.445Z,34.71
2018-03-21T10:25:56.378Z,35.72
2018-03-21T10:28:28.266Z,35.97
2018-03-21T10:30:59.648Z,34.69
2018-03-21T10:33:29.870Z,34.63
2018-03-21T10:36:01.618Z,36.02
2018-03-21T10:38:31.361Z,36.43
2018-03-21T10:41:04.005Z,33.52
2018-03-21T10:43:35.679Z,33.08
2018-03-21T10:46:07.125Z,30.85
2018-03-21T10:48:37.106Z,33.26
2018-03-21T10:51:07.195Z,32.44
2018-03-21T10:53:46.362Z,32.90
2018-03-21T10:56:19.284Z,33.76
2018-03-21T10:58:50.425Z,32.73
2018-03-21T11:01:28.112Z,34.16
2018-03-21T11:03:58.919Z,33.48
2018-03-21T11:06:29.742Z,32.18
2018-03-21T11:09:01.804Z,30.12
2018-03-21T11:11:38.772Z,30.61
2018-03-21T11:14:08.846Z,31.67
2018-03-21T11:16:41.846Z,32.37
2018-03-21T11:19:13.622Z,31.66
2018-03-21T11:21:47.394Z,29.22
2018-03-21T11:24:21.902Z,30.52
2018-03-21T11:26:53.150Z,30.27
2018-03-21T11:29:24.026Z,31.52
2018-03-21T11:31:59.129Z,31.33
2018-03-21T11:34:32.060Z,31.39
2018-03-21T11:37:05.890Z,30.15
2018-03-21T11:39:37.043Z,31.14
2018-03-21T11:42:07.353Z,31.28
2018-03-21T11:44:37.923Z,33.59
2018-03-21T11:47:11.002Z,32.54
2018-03-21T11:49:41.830Z,31.42
2018-03-21T11:52:13.561Z,30.78
2018-03-21T11:54:49.415Z,29.56
2018-03-21T11:57:20.728Z,31.26
2018-03-21T11:59:51.479Z,29.82
2018-03-21T12:02:23.606Z,29.87
2018-03-21T12:05:06.037Z,29.00
2018-03-21T12:07:41.096Z,30.04
2018-03-21T12:10:12.635Z,30.88
2018-03-21T12:12:45.873Z,31.38
2018-03-21T12:15:17.884Z,31.29
2018-03-21T12:17:48.823Z,30.80
2018-03-21T12:20:19.094Z,30.40
2018-03-21T12:22:49.648Z,30.79
2018-03-21T12:25:22.842Z,31.79
2018-03-21T12:27:58.781Z,30.12
2018-03-21T12:30:31.076Z,30.58
2018-03-21T12:33:06.066Z,30.45
2018-03-21T12:35:41.135Z,31.04
2018-03-21T12:38:11.313Z,31.59
2018-03-21T12:40:41.725Z,32.94
2018-03-21T12:43:11.803Z,32.87
2018-03-21T12:45:42.965Z,32.02
2018-03-21T12:48:14.410Z,32.62
2018-03-21T12:50:47.373Z,31.36
2018-03-21T12:53:19.756Z,32.02
2018-03-21T12:55:51.502Z,31.12
2018-03-21T12:58:27.730Z,31.73
2018-03-21T13:01:06.279Z,30.87
2018-03-21T13:03:36.141Z,29.72
2018-03-21T13:06:10.539Z,28.35
2018-03-21T13:08:41.197Z,28.87
2018-03-21T13:14:16.453Z,30.96
2018-03-21T13:16:48.687Z,30.63
2018-03-21T13:19:22.271Z,29.23
2018-03-21T13:21:54.091Z,29.89
2018-03-21T13:24:28.007Z,31.00
2018-03-21T13:27:00.517Z,32.56
2018-03-21T13:29:30.430Z,30.06
2018-03-21T13:32:00.091Z,30.10
2018-03-21T13:34:31.064Z,29.03
2018-03-21T13:37:03.101Z,28.62
2018-03-21T13:39:34.923Z,28.37
2018-03-21T13:42:09.861Z,29.42
2018-03-21T13:44:43.174Z,29.56
2018-03-21T13:47:18.947Z,31.02
2018-03-21T13:49:48.297Z,30.36
2018-03-21T13:52:18.360Z,30.29
2018-03-21T13:54:47.692Z,30.67
2018-03-21T13:57:17.964Z,31.28
2018-03-21T13:59:47.267Z,31.06
2018-03-21T14:02:16.612Z,30.94
2018-03-21T14:04:46.019Z,30.68
2018-03-21T14:07:15.587Z,30.38
2018-03-21T14:09:45.303Z,30.43
2018-03-21T14:12:14.663Z,29.05
2018-03-21T14:14:44.754Z,28.57
2018-03-21T14:17:14.165Z,27.38
2018-03-21T14:19:43.539Z,28.72
2018-03-21T14:22:13.054Z,29.79
2018-03-21T14:24:42.337Z,28.29
2018-03-21T14:27:11.976Z,27.98
2018-03-21T14:29:41.308Z,28.52
2018-03-21T14:32:11.721Z,28.96
2018-03-21T14:34:41.151Z,29.24
2018-03-21T14:37:11.692Z,30.27
2018-03-21T14:39:41.178Z,29.37
2018-03-21T14:42:11.263Z,29.39
2018-03-21T14:44:40.572Z,29.41
2018-03-21T14:47:09.907Z,29.12
2018-03-21T14:49:39.234Z,26.82
2018-03-21T14:52:09.155Z,26.32
2018-03-21T14:54:38.481Z,26.21
2018-03-21T14:57:08.103Z,26.73
2018-03-21T14:59:37.606Z,27.56
2018-03-21T15:02:07.081Z,27.75
2018-03-21T15:04:36.402Z,26.65
2018-03-21T15:07:05.705Z,28.34
2018-03-21T15:09:35.170Z,28.51
2018-03-21T15:12:04.456Z,28.02
2018-03-21T15:14:33.798Z,27.85
2018-03-21T15:17:06.354Z,28.25
2018-03-21T15:19:37.824Z,28.42
2018-03-21T15:22:08.636Z,27.51
2018-03-21T15:24:43.499Z,28.25
2018-03-21T15:27:14.796Z,28.33
2018-03-21T15:29:44.386Z,28.81
2018-03-21T15:32:14.201Z,27.32
2018-03-21T15:34:43.519Z,26.74
2018-03-21T15:37:12.836Z,28.73
2018-03-21T15:39:42.294Z,28.86
2018-03-21T15:42:12.350Z,29.90
2018-03-21T15:44:43.021Z,28.37
2018-03-21T15:47:12.309Z,29.12
2018-03-21T15:49:41.596Z,30.67
2018-03-21T15:52:11.030Z,30.13
2018-03-21T15:54:40.357Z,31.29
2018-03-21T15:57:09.625Z,30.50
2018-03-21T15:59:39.095Z,30.84
2018-03-21T16:02:08.395Z,30.92
2018-03-21T16:04:38.469Z,30.24
2018-03-21T16:07:07.820Z,30.80
2018-03-21T16:09:37.148Z,31.48
2018-03-21T16:12:06.424Z,31.70
2018-03-21T16:14:35.734Z,30.71
2018-03-21T16:17:05.743Z,31.58
2018-03-21T16:19:35.215Z,31.97
2018-03-21T16:22:04.815Z,32.20
2018-03-21T16:24:34.365Z,32.22
2018-03-21T16:27:04.372Z,30.76
2018-03-21T16:29:34.561Z,32.26
2018-03-21T16:32:04.423Z,31.76
2018-03-21T16:34:34.438Z,32.09
2018-03-21T16:37:04.531Z,32.50
2018-03-21T16:39:34.616Z,32.37
2018-03-21T16:42:05.760Z,32.30
2018-03-21T16:44:48.591Z,33.01
2018-03-21T16:47:19.621Z,33.30
2018-03-21T16:49:49.378Z,33.08
2018-03-21T16:52:19.429Z,33.52
2018-03-21T16:54:48.727Z,33.95
2018-03-21T16:57:18.364Z,34.43
2018-03-21T16:59:47.621Z,34.22
2018-03-21T17:02:16.961Z,34.27
2018-03-21T17:04:46.339Z,34.92
2018-03-21T17:07:17.707Z,35.56
2018-03-21T17:09:47.032Z,35.28
2018-03-21T17:12:16.467Z,35.90
2018-03-21T17:14:57.350Z,36.02
2018-03-21T17:17:27.408Z,35.86
2018-03-21T17:19:58.199Z,36.29
2018-03-21T17:22:27.577Z,36.78
2018-03-21T17:24:57.622Z,37.26
2018-03-21T17:27:26.957Z,37.72
2018-03-21T17:29:56.602Z,37.98
2018-03-21T17:32:27.931Z,38.19
2018-03-21T17:35:00.333Z,37.71
2018-03-21T17:37:31.288Z,37.79
2018-03-21T17:40:05.170Z,37.50
2018-03-21T17:42:38.811Z,37.94
2018-03-21T17:45:10.919Z,38.11
2018-03-21T17:47:42.238Z,38.06
2018-03-21T17:50:12.367Z,38.06
2018-03-21T17:52:48.027Z,37.89
2018-03-21T17:55:29.373Z,38.49
2018-03-21T17:58:00.637Z,38.92
2018-03-21T18:00:31.503Z,38.85
2018-03-21T18:03:02.251Z,38.18
2018-03-21T18:05:33.357Z,38.18
2018-03-21T18:08:03.487Z,38.06
2018-03-21T18:10:34.925Z,39.07
2018-03-21T18:15:48.568Z,38.36
2018-03-21T18:18:19.751Z,38.10
2018-03-21T18:20:51.768Z,37.85
2018-03-21T18:23:21.956Z,37.65
2018-03-21T18:25:52.288Z,38.23
2018-03-21T18:28:23.292Z,37.22
2018-03-21T18:30:53.610Z,37.84
2018-03-21T18:33:24.022Z,38.23
2018-03-21T18:35:55.037Z,39.25
2018-03-21T18:38:26.011Z,38.63
2018-03-21T18:40:57.468Z,39.02
2018-03-21T18:43:30.137Z,39.37
2018-03-21T18:46:04.660Z,39.45
2018-03-21T18:48:36.064Z,40.13
2018-03-21T18:51:06.773Z,43.26
2018-03-21T18:53:40.718Z,44.47
2018-03-21T18:56:11.863Z,43.62
2018-03-21T18:58:43.729Z,44.37
2018-03-21T19:01:13.380Z,44.12
2018-03-21T19:03:44.899Z,44.36
2018-03-21T19:06:15.459Z,45.72
2018-03-21T19:08:45.400Z,45.49
2018-03-21T19:11:17.679Z,44.22
2018-03-21T19:13:52.856Z,45.32
2018-03-21T19:16:23.166Z,46.71
2018-03-21T19:18:53.937Z,46.34
2018-03-21T19:21:27.724Z,45.81
2018-03-21T19:23:59.566Z,46.72
2018-03-21T19:26:30.404Z,47.31
2018-03-21T19:29:03.647Z,46.70
2018-03-21T19:31:35.606Z,47.23
2018-03-21T19:34:05.695Z,47.36
2018-03-21T19:36:35.751Z,47.35
2018-03-21T19:39:08.216Z,47.27
2018-03-21T19:41:39.154Z,48.12
2018-03-21T19:44:10.613Z,47.82
2018-03-21T19:46:42.705Z,47.95
2018-03-21T19:49:15.499Z,47.48
2018-03-21T19:52:05.411Z,47.89
2018-03-21T19:54:37.819Z,48.17
2018-03-21T19:57:08.838Z,47.99
2018-03-21T19:59:41.450Z,47.90
2018-03-21T20:02:13.454Z,47.55
2018-03-21T20:04:43.938Z,48.28
2018-03-21T20:07:14.930Z,47.38
2018-03-21T20:09:45.474Z,46.67
2018-03-21T20:12:16.631Z,47.64
2018-03-21T20:14:47.241Z,48.79
2018-03-21T20:17:18.486Z,49.78
2018-03-21T20:19:56.430Z,49.86
2018-03-21T20:22:31.115Z,49.01
2018-03-21T20:25:04.567Z,48.82
2018-03-21T20:27:36.920Z,49.19
2018-03-21T20:30:10.144Z,48.20
2018-03-21T20:32:50.313Z,48.53
2018-03-21T20:35:21.226Z,48.89
2018-03-21T20:37:53.724Z,50.55
2018-03-21T20:40:33.954Z,51.53
2018-03-21T20:43:07.619Z,50.44
2018-03-21T20:45:39.176Z,50.78
2018-03-21T20:48:12.404Z,51.65
2018-03-21T20:50:42.912Z,51.62
2018-03-21T20:53:12.451Z,50.91
2018-03-21T20:55:46.501Z,50.67
2018-03-21T20:58:17.287Z,50.87
2018-03-21T21:00:51.341Z,50.85
2018-03-21T21:03:24.754Z,51.37
2018-03-21T21:05:55.399Z,51.36
2018-03-21T21:08:28.708Z,51.62
2018-03-21T21:10:59.811Z,51.48
2018-03-21T21:13:31.751Z,51.47
2018-03-21T21:16:02.454Z,51.18
2018-03-21T21:18:35.354Z,50.45
2018-03-21T21:21:06.538Z,50.81
2018-03-21T21:23:39.416Z,50.98
2018-03-21T21:26:13.716Z,50.53
2018-03-21T21:28:45.290Z,51.86
2018-03-21T21:31:17.295Z,52.36
2018-03-21T21:33:49.029Z,51.02
2018-03-21T21:36:24.306Z,50.42
2018-03-21T21:38:55.150Z,51.21
2018-03-21T21:41:25.905Z,50.58
2018-03-21T21:43:58.890Z,50.86
2018-03-21T21:46:32.452Z,53.65
2018-03-21T21:49:06.301Z,52.85
2018-03-21T21:51:37.954Z,52.11
2018-03-21T21:54:09.212Z,53.23
2018-03-21T21:56:42.262Z,53.54
2018-03-21T21:59:16.596Z,53.81
2018-03-21T22:01:47.859Z,55.91
2018-03-21T22:04:22.894Z,54.22
2018-03-21T22:06:57.094Z,53.91
2018-03-21T22:09:30.324Z,53.05
2018-03-21T22:12:01.038Z,53.47
2018-03-21T22:14:32.599Z,52.53
2018-03-21T22:17:02.875Z,52.69
2018-03-21T22:19:33.849Z,52.80
2018-03-21T22:22:04.323Z,53.32
2018-03-21T22:24:35.175Z,52.83
2018-03-21T22:27:09.741Z,52.75
2018-03-21T22:29:39.810Z,53.42
2018-03-21T22:32:11.764Z,52.85
2018-03-21T22:34:44.314Z,54.01
2018-03-21T22:37:15.794Z,55.07
2018-03-21T22:39:47.119Z,54.72
2018-03-21T22:42:17.960Z,53.60
2018-03-21T22:44:47.920Z,55.60
2018-03-21T22:47:18.167Z,56.23
2018-03-21T22:49:50.084Z,55.29
2018-03-21T22:52:23.415Z,55.70
2018-03-21T22:54:56.565Z,54.02
2018-03-21T22:57:28.640Z,53.91
2018-03-21T23:00:00.364Z,53.93
2018-03-21T23:02:33.236Z,53.47
2018-03-21T23:05:06.045Z,53.40
2018-03-21T23:07:36.436Z,54.28
2018-03-21T23:10:09.359Z,54.25
2018-03-21T23:12:40.287Z,53.99
2018-03-21T23:15:12.666Z,53.40
2018-03-21T23:17:46.003Z,54.09
2018-03-21T23:20:19.195Z,56.92
2018-03-21T23:22:51.271Z,56.37
2018-03-21T23:25:21.608Z,55.40
2018-03-21T23:27:57.484Z,56.46
2018-03-21T23:30:28.606Z,55.44
2018-03-21T23:32:59.746Z,54.60
2018-03-21T23:35:30.201Z,55.72
2018-03-21T23:38:01.160Z,54.61
2018-03-21T23:40:35.545Z,54.98
2018-03-21T23:43:07.011Z,55.48
2018-03-21T23:45:39.745Z,55.78
2018-03-21T23:48:10.526Z,54.93
2018-03-21T23:50:41.630Z,55.59
2018-03-21T23:53:14.498Z,55.41
2018-03-21T23:55:44.616Z,54.62
2018-03-21T23:58:15.110Z,54.18
